Tiempo atmosférico en la estación meteorológica de Torre-Pacheco, Murcia (50 m.)



Fecha
DESCASC
Temp. máxima en grados centígrados (hora)
DESCASC
Temp. mínima en grados centígrados (hora)
DESCASC
Temp. media en grados centígrados
DESCASC
Racha de viento máxima en m/sg (hora)
DESCASC
Velocidad máxima media en intervalos de 10 minutos(hora)
DESCASC
Precipitaciones diarias en mm
DESCASC
Precipitaciones de 00:00 a 06:00 en mm
DESCASC
Precipitaciones de 06:00 a 12:00 en mm
DESCASC
Precipitaciones de 12:00 a 18:00 en mm
DESCASC
Precipitaciones de 18:00 a 24:00 en mm
DESCASC
22-01-2020 15.6 (15:20) 6.9 (05:10) 11.3 7.22 (10:40) 3.61 (14:20) 0.2 0 0.2 0 0
21-01-2020 13.1 (15:00) 8.3 (10:10) 10.7 12.5 (03:30) 5 (03:40) 22.2 12.2 8.4 0 1.6
20-01-2020 11.1 (08:50) 6.4 (07:10) 8.8 15.83 (06:10) 6.67 (06:10) 32.2 10 6.8 12.6 2.8
19-01-2020 13.9 (13:00) 6.6 (00:00) 10.2 11.11 (07:50) 5.28 (12:00) 19.6 0 0 0.4 19.2
18-01-2020 15.2 (15:50) 6.4 (00:00) 10.8 5.28 (16:10) 2.5 (16:10) 0.4 0 0.2 0.2 0
17-01-2020 20.3 (14:10) 4.2 (00:00) 12.2 5.83 (16:20) 3.33 (16:20) 0 0 0 0 0
16-01-2020 18.8 (14:20) 4.7 (00:00) 11.7 5.28 (04:00) 3.06 (05:40) 0 0 0 0 0
15-01-2020 18.2 (14:40) 3.1 (00:00) 10.7 5.28 (06:00) 3.33 (06:00) 0 0 0 0 0
14-01-2020 16.7 (14:20) 2.4 (00:00) 9.6 6.11 (15:20) 3.61 (15:40) 0 0 0 0 0
13-01-2020 15.5 (14:30) 1.6 (00:00) 8.6 6.94 (16:00) 3.33 (16:00) 0 0 0 0 0
12-01-2020 17.4 (15:20) 3.5 (00:00) 10.4 6.94 (12:50) 4.44 (11:00) 0 0 0 0 0
11-01-2020 16.3 (14:00) 5.7 (00:00) 11 6.11 (05:10) 3.06 (05:30) 0.2 0.2 0 0 0
10-01-2020 15.9 (15:50) 5.9 (00:00) 10.9 8.89 (11:50) 4.17 (11:20) 0.2 0 0 0 0.2
09-01-2020 16.9 (15:30) 6.5 (00:00) 11.7 4.17 (16:40) 2.5 (09:30) 0 0 0 0 0
08-01-2020 15.4 (15:10) 3.3 (00:00) 9.3 4.17 (15:50) 1.94 (08:30) 0 0 0 0 0
07-01-2020 16.2 (15:30) 2.1 (00:00) 9.2 5 (15:50) 2.78 (15:50) 0 0 0 0 0
06-01-2020 16.4 (14:50) 2.2 (00:00) 9.3 3.89 (16:00) 1.67 (03:00) 0 0 0 0 0
05-01-2020 17.2 (15:30) 3.5 (00:00) 10.4 5 (04:10) 2.5 (08:40) 0 0 0 0 0
04-01-2020 16.7 (14:30) 5.2 (00:00) 11 4.72 (14:50) 2.5 (16:10) 0 0 0 0 0
03-01-2020 17.1 (15:20) 3.3 (00:00) 10.2 4.72 (13:50) 2.22 (16:30) 0 0 0 0 0
02-01-2020 14.6 (16:00) 5.2 (00:00) 9.9 3.33 (15:20) 1.39 (07:00) 0 0 0 0 0
01-01-2020 16.9 (14:50) 4.3 (00:00) 10.6 4.72 (14:20) 2.5 (09:00) 0.2 0 0.2 0 0
31-12-2019 15.6 (14:40) 4.6 (00:00) 10.1 4.17 (15:20) 2.22 (15:30) 0 0 0 0 0
30-12-2019 -- (--) -- (--) -- -- (--) -- (--) -- 0 0 -- 0
29-12-2019 16.3 (15:10) 6.4 (00:00) 11.3 3.89 (16:30) 2.22 (16:30) 0 0 0 0 0
28-12-2019 16.3 (14:50) 6.5 (00:00) 11.4 5.56 (14:50) 2.5 (09:50) 0 0 0 0 0
27-12-2019 18 (15:10) 6.8 (00:00) 12.4 4.17 (01:50) 2.22 (17:10) 0 0 0 0 0

Gráficas

Temp. máximas Temp. mínimas Temp. medias Precipitaciones Rachas de viento máximas Velocidades máximas media en intervalos de 10 minutos

Datos horarios

Fecha y hora oficial Temperatura (ºC) Velocidad del viento (km/h) Dirección del viento Racha (km/h) Dirección de racha Precipitación (mm) Presión (hPa) Tendencia (hPa) Humedad (%)
2020-01-25 23:00:00 10.1 0 Calma 4 Norte 0 -- -- 98
2020-01-25 22:00:00 9.9 2 Noroeste 8 Noroeste 0 -- -- 97
2020-01-25 21:00:00 10.5 2 Noroeste 5 Oeste 0 -- -- 94
2020-01-25 20:00:00 11.5 0 Calma 6 Nordeste 0 -- -- 94
2020-01-25 19:00:00 11.7 0 Calma 3 Nordeste 0 -- -- 91
2020-01-25 18:00:00 13.6 0 Calma 10 Sudeste 0 -- -- 84
2020-01-25 17:00:00 14.4 4 Este 15 Sudeste 0 -- -- 80
2020-01-25 16:00:00 15.1 5 Sudeste 12 Sudeste 0 -- -- 77
2020-01-25 15:00:00 15 3 Sudeste 9 Norte 0 -- -- 77
2020-01-25 14:00:00 14.3 2 Nordeste 9 Nordeste 0 -- -- 84
2020-01-25 13:00:00 13.7 3 Norte 10 Norte 0 -- -- 88
2020-01-25 12:00:00 12.8 5 Noroeste 15 Nordeste 0 -- -- 93
2020-01-25 11:00:00 11.6 10 Nordeste 21 Nordeste 0 -- -- 97
2020-01-25 10:00:00 11 3 Norte 8 Norte 0 -- -- 99
2020-01-25 09:00:00 10 3 Norte 8 Nordeste 0 -- -- 100
2020-01-25 08:00:00 9.9 4 Nordeste 9 Nordeste 0 -- -- 100
2020-01-25 07:00:00 9.5 4 Norte 8 Norte 0 -- -- 100
2020-01-25 06:00:00 9.4 4 Norte 6 Norte 0 -- -- 100
2020-01-25 05:00:00 8.6 4 Norte 7 Norte 0 -- -- 100
2020-01-25 04:00:00 9.2 3 Norte 6 Norte 0 -- -- 100
2020-01-25 03:00:00 9.5 4 Norte 8 Norte 0 -- -- 100
2020-01-25 02:00:00 9.5 3 Norte 8 Norte 0 -- -- 99
2020-01-25 01:00:00 9.4 2 Norte 7 Nordeste 0 -- -- 98
2020-01-25 00:00:00 9.5 3 Norte 6 Norte 0 -- -- 98
2020-01-24 23:00:00 10 2 Nordeste 8 Norte 0 -- -- 97
2020-01-24 22:00:00 10.6 4 Norte 9 Norte 0 -- -- 97
2020-01-24 21:00:00 10.8 3 Norte 8 Norte 0 -- -- 95
2020-01-24 20:00:00 11.5 3 Norte 9 Nordeste 0 -- -- 94
2020-01-24 19:00:00 12.3 4 Nordeste 15 Nordeste 0 -- -- 92
2020-01-24 18:00:00 13.2 6 Nordeste 20 Nordeste 0 -- -- 89
2020-01-24 17:00:00 14.3 8 Nordeste 21 Nordeste 0 -- -- 85
2020-01-24 16:00:00 14.9 11 Este 23 Este 0 -- -- 81
2020-01-24 15:00:00 14.8 10 Nordeste 22 Nordeste 0 -- -- 82
2020-01-24 14:00:00 15 11 Nordeste 27 Este 0 -- -- 80
2020-01-24 13:00:00 15 10 Nordeste 26 Nordeste 0 -- -- 80
2020-01-24 12:00:00 13.8 8 Nordeste 24 Norte 0 -- -- 82
2020-01-24 11:00:00 13.3 8 Nordeste 19 Nordeste 0 -- -- 83
2020-01-24 10:00:00 11.9 6 Norte 15 Norte 0 -- -- 88
2020-01-24 09:00:00 11.2 5 Nordeste 14 Nordeste 0 -- -- 90
2020-01-24 08:00:00 11.1 6 Nordeste 17 Norte 0 -- -- 90
2020-01-24 07:00:00 10.9 6 Nordeste 16 Nordeste 0 -- -- 92
2020-01-24 06:00:00 10.4 6 Nordeste 15 Nordeste 0 -- -- 93
2020-01-24 05:00:00 10.4 6 Norte 13 Norte 0 -- -- 92
2020-01-24 04:00:00 10.4 6 Norte 15 Norte 0 -- -- 94
2020-01-24 03:00:00 10.4 6 Norte 12 Norte 0 -- -- 96
2020-01-24 02:00:00 10.6 3 Norte 13 Norte 0 -- -- 98
2020-01-24 01:00:00 10.8 5 Nordeste 12 Nordeste 0 -- -- 99
2020-01-24 00:00:00 10.8 4 Nordeste 13 Nordeste 0 -- -- 99
2020-01-23 23:00:00 10.7 4 Nordeste 13 Nordeste 0 -- -- 99
2020-01-23 22:00:00 10.7 4 Nordeste 10 Norte 0 -- -- 99
2020-01-23 21:00:00 10.7 3 Norte 10 Nordeste 0 -- -- 97
2020-01-23 20:00:00 11.5 3 Nordeste 9 Nordeste 0 -- -- 95
2020-01-23 19:00:00 12.3 4 Nordeste 13 Nordeste 0 -- -- 92
2020-01-23 18:00:00 13.5 6 Este 17 Este 0 -- -- 87
2020-01-23 17:00:00 14.1 8 Este 17 Este 0 -- -- 81
2020-01-23 16:00:00 14.7 9 Este 16 Este 0 -- -- 77
2020-01-23 15:00:00 14.3 8 Este 15 Nordeste 0 -- -- 81
2020-01-23 14:00:00 14.9 6 Este 15 Este 0 -- -- 80
2020-01-23 13:00:00 15 5 Este 12 Este 0 -- -- 80
2020-01-23 12:00:00 13.9 4 Nordeste 8 Nordeste 0 -- -- 86
2020-01-23 11:00:00 12.2 0 Calma 7 Nordeste 0 -- -- 93
2020-01-23 10:00:00 9.8 2 Norte 5 Norte 0 -- -- 100
2020-01-23 09:00:00 7.9 0 Calma 6 Oeste 0 -- -- 100
2020-01-23 08:00:00 8.1 0 Calma 7 Oeste 0 -- -- 100
2020-01-23 07:00:00 7.7 0 Calma 4 Noroeste 0 -- -- 100
2020-01-23 06:00:00 7.7 2 Noroeste 6 Oeste 0 -- -- 99
2020-01-23 05:00:00 8.1 3 Oeste 6 Noroeste 0 -- -- 99
2020-01-23 04:00:00 7.7 4 Noroeste 7 Noroeste 0 -- -- 99
2020-01-23 03:00:00 8.4 6 Oeste 8 Oeste 0 -- -- 99
2020-01-23 02:00:00 8 3 Noroeste 5 Noroeste 0 -- -- 99
2020-01-23 01:00:00 8.1 0 Calma 6 Noroeste 0 -- -- 98
2020-01-23 00:00:00 8 4 Noroeste 8 Noroeste 0 -- -- 97
2020-01-22 23:00:00 8.7 3 Noroeste 6 Noroeste 0 -- -- 97
2020-01-22 22:00:00 9.3 3 Noroeste 7 Noroeste 0 -- -- 96
2020-01-22 21:00:00 10.2 3 Noroeste 6 Noroeste 0 -- -- 95
2020-01-22 20:00:00 10.8 3 Noroeste 4 Nordeste 0 -- -- 93
2020-01-22 19:00:00 12 2 Nordeste 9 Nordeste 0 -- -- 91
2020-01-22 18:00:00 13.5 5 Este 15 Este 0 -- -- 86
2020-01-22 17:00:00 14.4 6 Este 19 Nordeste 0 -- -- 81
2020-01-22 16:00:00 15 7 Este 15 Nordeste 0 -- -- 72
2020-01-22 15:00:00 15.1 8 Nordeste 23 Este 0 -- -- 78
2020-01-22 14:00:00 15.4 11 Este 21 Nordeste 0 -- -- 77
2020-01-22 13:00:00 14.6 9 Nordeste 23 Este 0 -- -- 82
2020-01-22 12:00:00 14.3 10 Este 21 Este 0 -- -- 81
2020-01-22 11:00:00 13.1 10 Nordeste 26 Este 0 -- -- 87
2020-01-22 10:00:00 10.9 5 Nordeste 15 Nordeste 0 -- -- 98
2020-01-22 09:00:00 9.2 4 Nordeste 11 Norte 0 -- -- 100
2020-01-22 08:00:00 8.8 3 Nordeste 15 Nordeste 0.2 -- -- 98
2020-01-22 07:00:00 8.7 4 Nordeste 12 Nordeste 0 -- -- 100
2020-01-22 06:00:00 7.5 2 Nordeste 6 Norte 0 -- -- 100
2020-01-22 05:00:00 7 2 Norte 4 Norte 0 -- -- 100
2020-01-22 04:00:00 7.7 2 Norte 4 Norte 0 -- -- 100
2020-01-22 03:00:00 8.6 0 Calma 4 Nordeste 0 -- -- 100
2020-01-22 02:00:00 9.2 0 Calma 2 Nordeste 0 -- -- 100
2020-01-22 01:00:00 9.6 0 Calma 4 Este 0 -- -- 100
2020-01-22 00:00:00 9.4 2 Este 4 Este 0 -- -- 99
2020-01-21 23:00:00 9.8 2 Norte 8 Nordeste 0 -- -- 99
2020-01-21 22:00:00 9.9 3 Nordeste 9 Nordeste 0.2 -- -- 98
2020-01-21 21:00:00 10.1 3 Nordeste 8 Este 0 -- -- 97
2020-01-21 20:00:00 10.3 0 Calma 8 Nordeste 0.4 -- -- 96
2020-01-21 19:00:00 10.9 0 Calma 9 Este 1 -- -- 93
2020-01-21 18:00:00 11.7 2 Este 5 Este 0 -- -- 88
2020-01-21 17:00:00 12.3 2 Este 4 Sudeste 0 -- -- 82
2020-01-21 16:00:00 12.8 0 Calma 9 Oeste 0 -- -- 73
2020-01-21 15:00:00 13.1 4 Oeste 14 Noroeste 0 -- -- 76
2020-01-21 14:00:00 12.5 9 Noroeste 22 Noroeste 0 -- -- 78
2020-01-21 13:00:00 11.2 6 Noroeste 25 Norte 0 -- -- 84
2020-01-21 12:00:00 10.1 11 Norte 30 Norte 0 -- -- 91
2020-01-21 11:00:00 8.3 10 Noroeste 26 Noroeste 1 -- -- 99
2020-01-21 10:00:00 8.4 9 Norte 19 Norte 1.4 -- -- 99
2020-01-21 09:00:00 8.6 13 Oeste 20 Oeste 3.6 -- -- 98
2020-01-21 08:00:00 8.6 5 Oeste 16 Oeste 2.2 -- -- 97
2020-01-21 07:00:00 8.4 8 Norte 27 Norte 0.2 -- -- 96
2020-01-21 06:00:00 8.9 15 Norte 31 Norte 1.6 -- -- 97
2020-01-21 05:00:00 8.9 14 Norte 35 Norte 1.6 -- -- 96
2020-01-21 04:00:00 8.9 13 Norte 45 Nordeste 2.4 -- -- 96
2020-01-21 03:00:00 9.1 10 Nordeste 37 Norte 5.6 -- -- 96
2020-01-21 02:00:00 9.8 11 Nordeste 31 Norte 0 -- -- 88
2020-01-21 01:00:00 9.2 12 Norte 29 Norte 1 -- -- 96
2020-01-21 00:00:00 8.7 9 Norte 19 Norte 0.6 -- -- 95
2020-01-20 23:00:00 8.8 9 Norte 20 Nordeste 0.6 -- -- 97
2020-01-20 22:00:00 8.6 8 Norte 19 Norte 0 -- -- 96
2020-01-20 21:00:00 8.6 8 Norte 18 Norte 0.4 -- -- 97
2020-01-20 20:00:00 8.8 8 Norte 16 Noroeste 0 -- -- 99
2020-01-20 19:00:00 8.9 5 Nordeste 17 Norte 1.2 -- -- 99
2020-01-20 18:00:00 8.3 7 Norte 19 Norte 1.2 -- -- 98
2020-01-20 17:00:00 8.9 7 Norte 25 Este 6.8 -- -- 97
2020-01-20 16:00:00 9.1 7 Este 23 Norte 3.2 -- -- 93
2020-01-20 15:00:00 10.8 10 Norte 24 Norte 0 -- -- 87
2020-01-20 14:00:00 10 10 Norte 26 Norte 0.6 -- -- 90
2020-01-20 13:00:00 -- -- -- -- -- -- -- -- --
2020-01-20 12:00:00 -- -- -- -- -- -- -- -- --
2020-01-20 11:00:00 -- -- -- -- -- -- -- -- --
2020-01-20 10:00:00 -- -- -- -- -- -- -- -- --
2020-01-20 09:00:00 -- -- -- -- -- -- -- -- --
2020-01-20 08:00:00 -- -- -- -- -- -- -- -- --
2020-01-20 07:00:00 -- -- -- -- -- -- -- -- --
2020-01-20 06:00:00 -- -- -- -- -- -- -- -- --
2020-01-20 05:00:00 -- -- -- -- -- -- -- -- --
2020-01-20 04:00:00 -- -- -- -- -- -- -- -- --
2020-01-20 03:00:00 -- -- -- -- -- -- -- -- --
2020-01-20 02:00:00 -- -- -- -- -- -- -- -- --
2020-01-20 01:00:00 -- -- -- -- -- -- -- -- --
2020-01-20 00:00:00 -- -- -- -- -- -- -- -- --
2020-01-19 23:00:00 -- -- -- -- -- -- -- -- --
2020-01-19 22:00:00 -- -- -- -- -- -- -- -- --
2020-01-19 21:00:00 -- -- -- -- -- -- -- -- --
2020-01-19 20:00:00 -- -- -- -- -- -- -- -- --
2020-01-19 19:00:00 -- -- -- -- -- -- -- -- --
2020-01-19 18:00:00 -- -- -- -- -- -- -- -- --
2020-01-19 17:00:00 10.2 15 Norte 33 Norte 0.4 -- -- 70
2020-01-19 16:00:00 11.9 16 Norte 37 Norte 0 -- -- 64
2020-01-19 15:00:00 12.3 17 Norte 33 Norte 0 -- -- 60
2020-01-19 14:00:00 13.5 14 Norte 34 Norte 0 -- -- 57
2020-01-19 13:00:00 13.9 14 Norte 34 Norte 0 -- -- 58
2020-01-19 12:00:00 13.1 19 Norte 38 Norte 0 -- -- 59
2020-01-19 11:00:00 12.1 14 Norte 33 Noroeste 0 -- -- 64
2020-01-19 10:00:00 11.8 12 Noroeste 35 Noroeste 0 -- -- 68
2020-01-19 09:00:00 8.1 6 Noroeste 19 Noroeste 0 -- -- 81
2020-01-19 08:00:00 9.2 15 Noroeste 40 Oeste 0 -- -- 77
2020-01-19 07:00:00 9 12 Oeste 21 Oeste 0 -- -- 86
2020-01-19 06:00:00 8.7 4 Norte 10 Noroeste 0 -- -- 94
2020-01-19 05:00:00 7.7 4 Noroeste 12 Norte 0 -- -- 98
2020-01-19 04:00:00 8 3 Sudoeste 9 Oeste 0 -- -- 98
2020-01-19 03:00:00 7.7 0 Calma 6 Sudeste 0 -- -- 98
2020-01-19 02:00:00 7.6 2 Norte 8 Norte 0 -- -- 98
2020-01-19 01:00:00 8 3 Este 6 Sudeste 0 -- -- 98
2020-01-19 00:00:00 8.7 2 Oeste 9 Sur 0 -- -- 98
2020-01-18 23:00:00 8.8 0 Calma 8 Este 0 -- -- 96
2020-01-18 22:00:00 9 0 Calma 5 Norte 0 -- -- 92
2020-01-18 21:00:00 10.7 3 Norte 8 Oeste 0 -- -- 90
2020-01-18 20:00:00 12.1 2 Sudoeste 14 Sur 0 -- -- 86
2020-01-18 19:00:00 12.7 4 Sudoeste 11 Sudoeste 0 -- -- 82
2020-01-18 18:00:00 13.3 5 Sudoeste 15 Oeste 0 -- -- 75
2020-01-18 17:00:00 14.1 4 Sudoeste 19 Sudoeste 0 -- -- 74
2020-01-18 16:00:00 15.2 9 Sudoeste 17 Sudoeste 0 -- -- 68
2020-01-18 15:00:00 14.3 6 Oeste 12 Oeste 0 -- -- 72
2020-01-18 14:00:00 12.9 6 Oeste 16 Oeste 0 -- -- 82
2020-01-18 13:00:00 11.7 5 Oeste 11 Oeste 0.2 -- -- 86
2020-01-18 12:00:00 11.7 0 Calma 11 Oeste 0.2 -- -- 85
2020-01-18 11:00:00 12.2 2 Norte 8 Norte 0 -- -- 77
2020-01-18 10:00:00 9.9 3 Norte 9 Nordeste 0 -- -- 84
2020-01-18 09:00:00 7.3 3 Noroeste 9 Noroeste 0 -- -- 88
2020-01-18 08:00:00 6.7 6 Noroeste 9 Noroeste 0 -- -- 89
2020-01-18 07:00:00 6.7 3 Noroeste 11 Noroeste 0 -- -- 86
2020-01-18 06:00:00 6.7 4 Noroeste 12 Noroeste 0 -- -- 87
2020-01-18 05:00:00 7.3 4 Noroeste 16 Oeste 0 -- -- 85
2020-01-18 04:00:00 7.3 3 Noroeste 12 Oeste 0 -- -- 86
2020-01-18 03:00:00 8.4 6 Oeste 19 Oeste 0 -- -- 84
2020-01-18 02:00:00 8.5 6 Oeste 9 Oeste 0 -- -- 83
2020-01-18 01:00:00 8.5 3 Oeste 6 Noroeste 0 -- -- 85
2020-01-18 00:00:00 8.1 4 Noroeste 7 Norte 0 -- -- 87
2020-01-17 23:00:00 7.9 3 Norte 8 Noroeste 0 -- -- 86
2020-01-17 22:00:00 8.5 2 Norte 7 Noroeste 0 -- -- 84
2020-01-17 21:00:00 9.8 2 Noroeste 6 Noroeste 0 -- -- 84
2020-01-17 20:00:00 11.4 2 Sudoeste 6 Sur 0 -- -- 79
2020-01-17 19:00:00 13.3 2 Sudoeste 8 Sudoeste 0 -- -- 77
2020-01-17 18:00:00 15.4 3 Sudoeste 15 Sudoeste 0 -- -- 73
2020-01-17 17:00:00 16.6 10 Sur 21 Sur 0 -- -- 64
2020-01-17 16:00:00 18.2 11 Sur 18 Sur 0 -- -- 55
2020-01-17 15:00:00 19.3 6 Sur 18 Sudoeste 0 -- -- 46
2020-01-17 14:00:00 20.1 4 Sur 9 Sudoeste 0 -- -- 35
2020-01-17 13:00:00 18.3 4 Oeste 10 Oeste 0 -- -- 41
2020-01-17 12:00:00 16.4 5 Oeste 10 Oeste 0 -- -- 49
2020-01-17 11:00:00 13.8 7 Oeste 17 Oeste 0 -- -- 56
2020-01-17 10:00:00 9.1 7 Oeste 12 Oeste 0 -- -- 74
2020-01-17 09:00:00 5.3 6 Oeste 12 Oeste 0 -- -- 83
2020-01-17 08:00:00 4.5 3 Noroeste 16 Oeste 0 -- -- 82
2020-01-17 07:00:00 4.9 9 Oeste 16 Oeste 0 -- -- 85
2020-01-17 06:00:00 4.4 5 Oeste 9 Oeste 0 -- -- 87
2020-01-17 05:00:00 5.6 6 Noroeste 13 Oeste 0 -- -- 82
2020-01-17 04:00:00 5.5 5 Noroeste 9 Oeste 0 -- -- 87
2020-01-17 03:00:00 5.6 5 Oeste 8 Oeste 0 -- -- 92
2020-01-17 02:00:00 5.8 4 Oeste 9 Noroeste 0 -- -- 94
2020-01-17 01:00:00 6.1 3 Oeste 9 Noroeste 0 -- -- 92
2020-01-17 00:00:00 6.4 5 Noroeste 10 Noroeste 0 -- -- 87
2020-01-16 23:00:00 6.9 4 Noroeste 7 Oeste 0 -- -- 84
2020-01-16 22:00:00 7 3 Noroeste 9 Noroeste 0 -- -- 81
2020-01-16 21:00:00 7.7 3 Noroeste 6 Noroeste 0 -- -- 81
2020-01-16 20:00:00 9.1 0 Calma 6 Oeste 0 -- -- 82
2020-01-16 19:00:00 11.7 3 Sur 8 Sudeste 0 -- -- 73
2020-01-16 18:00:00 14 4 Sur 13 Sur 0 -- -- 68
2020-01-16 17:00:00 15.8 8 Sur 19 Sur 0 -- -- 64
2020-01-16 16:00:00 17.7 8 Sur 17 Sur 0 -- -- 53
2020-01-16 15:00:00 18.7 8 Sur 14 Sur 0 -- -- 43
2020-01-16 14:00:00 18.7 7 Sur 15 Sur 0 -- -- 48
2020-01-16 13:00:00 18.1 4 Sudoeste 8 Sur 0 -- -- 50
2020-01-16 12:00:00 15.7 5 Oeste 12 Oeste 0 -- -- 52
2020-01-16 11:00:00 12.5 7 Oeste 14 Oeste 0 -- -- 56
2020-01-16 10:00:00 8.1 6 Noroeste 10 Noroeste 0 -- -- 73
2020-01-16 09:00:00 4.7 5 Noroeste 10 Oeste 0 -- -- 81
2020-01-16 08:00:00 5.1 4 Noroeste 10 Oeste 0 -- -- 79
2020-01-16 07:00:00 5.4 4 Noroeste 14 Noroeste 0 -- -- 78
2020-01-16 06:00:00 5.4 6 Oeste 18 Oeste 0 -- -- 80
2020-01-16 05:00:00 5.1 6 Noroeste 13 Oeste 0 -- -- 83
2020-01-16 04:00:00 6.5 10 Oeste 19 Oeste 0 -- -- 78
2020-01-16 03:00:00 5.8 6 Oeste 15 Oeste 0 -- -- 84
2020-01-16 02:00:00 6.9 3 Noroeste 12 Oeste 0 -- -- 80
2020-01-16 01:00:00 6.7 5 Noroeste 14 Oeste 0 -- -- 80
2020-01-16 00:00:00 7 5 Oeste 11 Sudoeste 0 -- -- 80
2020-01-15 23:00:00 7.7 5 Oeste 12 Oeste 0 -- -- 80
2020-01-15 22:00:00 7.5 6 Noroeste 10 Oeste 0 -- -- 80
2020-01-15 21:00:00 8.4 2 Norte 9 Oeste 0 -- -- 83
2020-01-15 20:00:00 10.1 6 Oeste 10 Oeste 0 -- -- 76
2020-01-15 19:00:00 11.3 0 Calma 9 Sudoeste 0 -- -- 71
2020-01-15 18:00:00 14.5 6 Sudoeste 16 Sudoeste 0 -- -- 58
2020-01-15 17:00:00 16.3 9 Sudoeste 19 Sur 0 -- -- 45
2020-01-15 16:00:00 17.6 10 Sudoeste 19 Sudoeste 0 -- -- 42
2020-01-15 15:00:00 18.1 7 Sur 15 Sudoeste 0 -- -- 47
2020-01-15 14:00:00 17.5 4 Sudoeste 11 Sudoeste 0 -- -- 46
2020-01-15 13:00:00 16.4 6 Oeste 17 Oeste 0 -- -- 44
2020-01-15 12:00:00 14.6 8 Oeste 17 Oeste 0 -- -- 51
2020-01-15 11:00:00 11.3 10 Oeste 17 Oeste 0 -- -- 64
2020-01-15 10:00:00 6.6 9 Oeste 15 Oeste 0 -- -- 80
2020-01-15 09:00:00 4.3 8 Oeste 14 Oeste 0 -- -- 87
2020-01-15 08:00:00 3.8 6 Oeste 10 Oeste 0 -- -- 87
2020-01-15 07:00:00 4.1 5 Oeste 18 Oeste 0 -- -- 86
2020-01-15 06:00:00 4.7 12 Oeste 19 Oeste 0 -- -- 86
2020-01-15 05:00:00 3.3 4 Noroeste 9 Oeste 0 -- -- 89
2020-01-15 04:00:00 4.1 4 Noroeste 9 Noroeste 0 -- -- 88
2020-01-15 03:00:00 4.3 4 Noroeste 8 Noroeste 0 -- -- 89
2020-01-15 02:00:00 4.1 5 Noroeste 7 Noroeste 0 -- -- 91
2020-01-15 01:00:00 5 4 Noroeste 10 Noroeste 0 -- -- 93
2020-01-15 00:00:00 5.2 5 Noroeste 9 Noroeste 0 -- -- 94
2020-01-14 23:00:00 5.4 5 Noroeste 7 Oeste 0 -- -- 92
2020-01-14 22:00:00 5.9 5 Noroeste 6 Noroeste 0 -- -- 89
2020-01-14 21:00:00 7 2 Noroeste 5 Noroeste 0 -- -- 89
2020-01-14 20:00:00 8.3 3 Norte 6 Noroeste 0 -- -- 86
2020-01-14 19:00:00 10.6 3 Oeste 9 Oeste 0 -- -- 84
2020-01-14 18:00:00 12.1 3 Sudoeste 16 Sudoeste 0 -- -- 74
2020-01-14 17:00:00 13.8 10 Sudoeste 22 Sur 0 -- -- 71
2020-01-14 16:00:00 15.3 13 Sudoeste 22 Sur 0 -- -- 63
2020-01-14 15:00:00 16.6 9 Sudoeste 19 Sudoeste 0 -- -- 50
2020-01-14 14:00:00 16.3 5 Oeste 12 Oeste 0 -- -- 58
2020-01-14 13:00:00 15.5 4 Sur 10 Sur 0 -- -- 53
2020-01-14 12:00:00 13.2 4 Noroeste 10 Noroeste 0 -- -- 57
2020-01-14 11:00:00 9.5 8 Oeste 15 Oeste 0 -- -- 67
2020-01-14 10:00:00 5.8 7 Oeste 15 Oeste 0 -- -- 82
2020-01-14 09:00:00 3.3 9 Oeste 14 Oeste 0 -- -- 86
2020-01-14 08:00:00 2.5 6 Noroeste 13 Oeste 0 -- -- 90
2020-01-14 07:00:00 2.8 3 Noroeste 11 Noroeste 0 -- -- 92
2020-01-14 06:00:00 2.9 4 Noroeste 11 Noroeste 0 -- -- 95
2020-01-14 05:00:00 2.4 3 Noroeste 6 Noroeste 0 -- -- 95
2020-01-14 04:00:00 3.9 4 Oeste 12 Oeste 0 -- -- 95
2020-01-14 03:00:00 4.2 4 Noroeste 9 Oeste 0 -- -- 96
2020-01-14 02:00:00 4.5 4 Oeste 8 Oeste 0 -- -- 97
2020-01-14 01:00:00 5.4 5 Oeste 10 Oeste 0 -- -- 97
2020-01-14 00:00:00 5.3 4 Noroeste 9 Noroeste 0 -- -- 96
2020-01-13 23:00:00 5.4 4 Noroeste 8 Noroeste 0 -- -- 94
2020-01-13 22:00:00 6.4 3 Noroeste 8 Norte 0 -- -- 92
2020-01-13 21:00:00 7 2 Noroeste 6 Noroeste 0 -- -- 90
2020-01-13 20:00:00 8.9 3 Noroeste 5 Oeste 0 -- -- 86
2020-01-13 19:00:00 10.6 2 Oeste 10 Sudoeste 0 -- -- 79
2020-01-13 18:00:00 12.5 4 Sudoeste 19 Sudoeste 0 -- -- 75
2020-01-13 17:00:00 13.6 8 Sudoeste 22 Sudoeste 0 -- -- 70
2020-01-13 16:00:00 14.6 12 Sudoeste 25 Sudoeste 0 -- -- 64
2020-01-13 15:00:00 15.3 8 Sudoeste 21 Oeste 0 -- -- 58
2020-01-13 14:00:00 15.3 8 Sudoeste 21 Oeste 0 -- -- 58
2020-01-13 13:00:00 15 6 Sudoeste 17 Sudoeste 0 -- -- 62
2020-01-13 12:00:00 13.1 4 Sudoeste 12 Noroeste 0 -- -- 70
2020-01-13 11:00:00 9.3 8 Noroeste 15 Noroeste 0 -- -- 76
2020-01-13 10:00:00 4.9 6 Noroeste 11 Noroeste 0 -- -- 89
2020-01-13 09:00:00 1.8 5 Noroeste 10 Noroeste 0 -- -- 93
2020-01-13 08:00:00 1.7 5 Noroeste 13 Noroeste 0 -- -- 92
2020-01-13 07:00:00 2.1 5 Noroeste 13 Oeste 0 -- -- 90
2020-01-13 06:00:00 2.6 5 Oeste 9 Noroeste 0 -- -- 92
2020-01-13 05:00:00 2.7 4 Oeste 9 Noroeste 0 -- -- 93
2020-01-13 04:00:00 2.8 4 Oeste 10 Oeste 0 -- -- 93
2020-01-13 03:00:00 3.8 6 Oeste 13 Oeste 0 -- -- 95
2020-01-13 02:00:00 3.9 4 Noroeste 8 Noroeste 0 -- -- 96
2020-01-13 01:00:00 4.3 5 Oeste 10 Noroeste 0 -- -- 96
2020-01-13 00:00:00 4 5 Noroeste 9 Noroeste 0 -- -- 94
2020-01-12 23:00:00 5.1 3 Norte 6 Noroeste 0 -- -- 91
2020-01-12 22:00:00 6.3 5 Norte 10 Norte 0 -- -- 89
2020-01-12 21:00:00 7.1 5 Norte 9 Norte 0 -- -- 86
2020-01-12 20:00:00 9.2 0 Calma 14 Este 0 -- -- 79
2020-01-12 19:00:00 10.4 0 Calma 9 Este 0 -- -- 77
2020-01-12 18:00:00 12.4 3 Este 14 Sudeste 0 -- -- 69
2020-01-12 17:00:00 14 5 Este 17 Sudeste 0 -- -- 59
2020-01-12 16:00:00 16.4 6 Este 15 Este 0 -- -- 39
2020-01-12 15:00:00 17.1 6 Nordeste 19 Norte 0 -- -- 31
2020-01-12 14:00:00 16.9 8 Noroeste 25 Noroeste 0 -- -- 37
2020-01-12 13:00:00 16 12 Noroeste 25 Noroeste 0 -- -- 40
2020-01-12 12:00:00 13.6 9 Oeste 22 Oeste 0 -- -- 53
2020-01-12 11:00:00 10.7 16 Oeste 23 Oeste 0 -- -- 63
2020-01-12 10:00:00 7 13 Oeste 22 Oeste 0 -- -- 76
2020-01-12 09:00:00 4.1 9 Oeste 19 Oeste 0 -- -- 86
2020-01-12 08:00:00 4 8 Oeste 18 Oeste 0 -- -- 87
2020-01-12 07:00:00 3.5 8 Oeste 13 Oeste 0 -- -- 91
2020-01-12 06:00:00 4.1 7 Oeste 17 Oeste 0 -- -- 89
2020-01-12 05:00:00 3.9 5 Oeste 10 Noroeste 0 -- -- 92
2020-01-12 04:00:00 4.5 4 Noroeste 10 Oeste 0 -- -- 94
2020-01-12 03:00:00 4.6 4 Oeste 10 Oeste 0 -- -- 95
2020-01-12 02:00:00 4.6 4 Noroeste 8 Noroeste 0 -- -- 94
2020-01-12 01:00:00 5.5 2 Noroeste 9 Oeste 0 -- -- 95
2020-01-12 00:00:00 5.7 4 Noroeste 9 Oeste 0 -- -- 94
2020-01-11 23:00:00 5.9 3 Noroeste 7 Noroeste 0 -- -- 93
2020-01-11 22:00:00 6.5 3 Noroeste 9 Noroeste 0 -- -- 91
2020-01-11 21:00:00 7.4 4 Noroeste 8 Noroeste 0 -- -- 88
2020-01-11 20:00:00 9.8 2 Norte 12 Este 0 -- -- 83
2020-01-11 19:00:00 11.6 6 Este 15 Este 0 -- -- 80
2020-01-11 18:00:00 13.1 8 Este 20 Este 0 -- -- 73
2020-01-11 17:00:00 14.1 10 Este 20 Sudeste 0 -- -- 63
2020-01-11 16:00:00 15.5 10 Este 22 Este 0 -- -- 53
2020-01-11 15:00:00 16.1 10 Este 22 Este 0 -- -- 50
2020-01-11 14:00:00 16.3 9 Nordeste 20 Este 0 -- -- 51
2020-01-11 13:00:00 15.6 8 Nordeste 19 Nordeste 0 -- -- 48
2020-01-11 12:00:00 14.6 9 Norte 18 Norte 0 -- -- 52
2020-01-11 11:00:00 13 8 Norte 19 Norte 0 -- -- 58
2020-01-11 10:00:00 11 8 Norte 18 Nordeste 0 -- -- 66
2020-01-11 09:00:00 9.6 5 Norte 12 Norte 0 -- -- 73
2020-01-11 08:00:00 9.5 6 Norte 15 Noroeste 0 -- -- 75
2020-01-11 07:00:00 9.9 7 Norte 17 Norte 0 -- -- 76
2020-01-11 06:00:00 10 9 Norte 22 Norte 0 -- -- 76
2020-01-11 05:00:00 10.6 10 Norte 19 Norte 0 -- -- 74
2020-01-11 04:00:00 10.2 5 Norte 18 Norte 0 -- -- 79
2020-01-11 03:00:00 9.4 4 Norte 15 Norte 0 -- -- 83
2020-01-11 02:00:00 10.4 9 Norte 18 Nordeste 0.2 -- -- 80
2020-01-11 01:00:00 10.7 7 Norte 20 Nordeste 0 -- -- 79
2020-01-11 00:00:00 10.7 5 Norte 22 Norte 0 -- -- 76
2020-01-10 23:00:00 11.1 8 Nordeste 23 Norte 0 -- -- 72
2020-01-10 22:00:00 11.2 6 Nordeste 16 Norte 0 -- -- 69
2020-01-10 21:00:00 11.2 6 Nordeste 23 Norte 0.2 -- -- 74
2020-01-10 20:00:00 11.8 10 Nordeste 27 Nordeste 0 -- -- 65
2020-01-10 19:00:00 10.5 3 Noroeste 8 Nordeste 0 -- -- 82
2020-01-10 18:00:00 12.4 4 Nordeste 24 Este 0 -- -- 79
2020-01-10 17:00:00 13.7 10 Este 19 Nordeste 0 -- -- 77
2020-01-10 16:00:00 15.7 3 Este 10 Nordeste 0 -- -- 56
2020-01-10 15:00:00 15.2 5 Norte 14 Nordeste 0 -- -- 56
2020-01-10 14:00:00 14.7 6 Nordeste 15 Nordeste 0 -- -- 60
2020-01-10 13:00:00 14.8 7 Nordeste 17 Este 0 -- -- 60
2020-01-10 12:00:00 14 9 Norte 32 Norte 0 -- -- 62
2020-01-10 11:00:00 13.3 10 Norte 26 Norte 0 -- -- 64
2020-01-10 10:00:00 9.7 9 Noroeste 21 Oeste 0 -- -- 81
2020-01-10 09:00:00 7.2 7 Oeste 13 Oeste 0 -- -- 90
2020-01-10 08:00:00 6.7 8 Oeste 14 Oeste 0 -- -- 96
2020-01-10 07:00:00 6.4 5 Oeste 14 Oeste 0 -- -- 97
2020-01-10 06:00:00 6.9 7 Oeste 14 Noroeste 0 -- -- 98
2020-01-10 05:00:00 6.9 2 Oeste 6 Noroeste 0 -- -- 98
2020-01-10 04:00:00 6.3 3 Noroeste 8 Oeste 0 -- -- 98
2020-01-10 03:00:00 5.9 2 Noroeste 6 Noroeste 0 -- -- 97
2020-01-10 02:00:00 6.5 0 Calma 8 Oeste 0 -- -- 96
2020-01-10 01:00:00 7.2 2 Oeste 6 Norte 0 -- -- 95
2020-01-10 00:00:00 7.2 3 Norte 5 Norte 0 -- -- 95
2020-01-09 23:00:00 7.9 0 Calma 4 Oeste 0 -- -- 93
2020-01-09 22:00:00 8.3 0 Calma 5 Noroeste 0 -- -- 94
2020-01-09 21:00:00 8.2 4 Noroeste 6 Oeste 0 -- -- 92
2020-01-09 20:00:00 9 2 Noroeste 4 Oeste 0 -- -- 90
2020-01-09 19:00:00 10.7 0 Calma 6 Sur 0 -- -- 84
2020-01-09 18:00:00 12.6 0 Calma 13 Sudeste 0 -- -- 78
2020-01-09 17:00:00 13.9 7 Sudeste 15 Sudeste 0 -- -- 73
2020-01-09 16:00:00 16.5 3 Sur 10 Sur 0 -- -- 56
2020-01-09 15:00:00 16.4 3 Sudoeste 11 Oeste 0 -- -- 56
2020-01-09 14:00:00 15.7 4 Noroeste 8 Oeste 0 -- -- 60
2020-01-09 13:00:00 15.2 3 Noroeste 9 Oeste 0 -- -- 66
2020-01-09 12:00:00 14.8 5 Oeste 11 Oeste 0 -- -- 68
2020-01-09 11:00:00 11.9 7 Oeste 12 Oeste 0 -- -- 80
2020-01-09 10:00:00 8.6 8 Oeste 15 Oeste 0 -- -- 94
2020-01-09 09:00:00 6.5 7 Oeste 10 Oeste 0 -- -- 96
2020-01-09 08:00:00 7 3 Oeste 5 Oeste 0 -- -- 96
2020-01-09 07:00:00 8.1 4 Noroeste 7 Noroeste 0 -- -- 95
2020-01-09 06:00:00 8.7 4 Oeste 8 Oeste 0 -- -- 98
2020-01-09 05:00:00 8 4 Noroeste 6 Noroeste 0 -- -- 97
2020-01-09 04:00:00 7.9 0 Calma 4 Norte 0 -- -- 96
2020-01-09 03:00:00 8.9 0 Calma 8 Norte 0 -- -- 96
2020-01-09 02:00:00 9.4 4 Norte 9 Noroeste 0 -- -- 96
2020-01-09 01:00:00 9.8 4 Norte 7 Norte 0 -- -- 96
2020-01-09 00:00:00 10.1 4 Norte 6 Norte 0 -- -- 95
2020-01-08 23:00:00 10.3 4 Norte 8 Norte 0 -- -- 95
2020-01-08 22:00:00 9.8 3 Noroeste 7 Norte 0 -- -- 94
2020-01-08 21:00:00 9.7 3 Norte 7 Norte 0 -- -- 95
2020-01-08 20:00:00 9.2 2 Norte 6 Nordeste 0 -- -- 89
2020-01-08 19:00:00 11 4 Nordeste 6 Nordeste 0 -- -- 89
2020-01-08 18:00:00 12.7 3 Este 11 Nordeste 0 -- -- 84
2020-01-08 17:00:00 13.8 4 Este 15 Este 0 -- -- 78
2020-01-08 16:00:00 15.3 5 Este 15 Sudeste 0 -- -- 72
2020-01-08 15:00:00 15.2 4 Este 12 Nordeste 0 -- -- 72
2020-01-08 14:00:00 15 6 Este 13 Este 0 -- -- 73
2020-01-08 13:00:00 14.5 4 Nordeste 11 Nordeste 0 -- -- 77
2020-01-08 12:00:00 12.5 4 Este 8 Este 0 -- -- 80
2020-01-08 11:00:00 9.2 0 Calma 7 Noroeste 0 -- -- 91
2020-01-08 10:00:00 5.6 4 Noroeste 9 Noroeste 0 -- -- 98
2020-01-08 09:00:00 3.5 5 Noroeste 11 Noroeste 0 -- -- 99
2020-01-08 08:00:00 3.8 4 Noroeste 10 Noroeste 0 -- -- 99
2020-01-08 07:00:00 3.4 6 Noroeste 10 Oeste 0 -- -- 98
2020-01-08 06:00:00 3.6 4 Noroeste 9 Noroeste 0 -- -- 98
2020-01-08 05:00:00 4.1 6 Noroeste 9 Oeste 0 -- -- 99
2020-01-08 04:00:00 4.3 6 Noroeste 8 Noroeste 0 -- -- 99
2020-01-08 03:00:00 4.7 5 Noroeste 10 Oeste 0 -- -- 99
2020-01-08 02:00:00 5.2 6 Oeste 12 Oeste 0 -- -- 99
2020-01-08 01:00:00 4.9 4 Noroeste 8 Noroeste 0 -- -- 98
2020-01-08 00:00:00 4.7 3 Noroeste 4 Noroeste 0 -- -- 97
2020-01-07 23:00:00 5.5 2 Noroeste 6 Noroeste 0 -- -- 96
2020-01-07 22:00:00 6.2 3 Norte 6 Noroeste 0 -- -- 95
2020-01-07 21:00:00 7.1 5 Noroeste 7 Noroeste 0 -- -- 94
2020-01-07 20:00:00 8.2 2 Noroeste 4 Noroeste 0 -- -- 91
2020-01-07 19:00:00 10.7 0 Calma 6 Sudoeste 0 -- -- 86
2020-01-07 18:00:00 12.4 4 Sudoeste 16 Sur 0 -- -- 82
2020-01-07 17:00:00 13.8 8 Sur 17 Sur 0 -- -- 77
2020-01-07 16:00:00 15.6 10 Sur 18 Sur 0 -- -- 70
2020-01-07 15:00:00 16 5 Sur 13 Sudoeste 0 -- -- 68
2020-01-07 14:00:00 15.4 6 Sudoeste 13 Sudoeste 0 -- -- 70
2020-01-07 13:00:00 14.8 3 Sudoeste 7 Sudoeste 0 -- -- 70
2020-01-07 12:00:00 12.7 3 Nordeste 9 Noroeste 0 -- -- 76
2020-01-07 11:00:00 8.7 3 Noroeste 9 Noroeste 0 -- -- 89
2020-01-07 10:00:00 5.3 5 Oeste 10 Oeste 0 -- -- 98
2020-01-07 09:00:00 2.3 4 Oeste 9 Noroeste 0 -- -- 99
2020-01-07 08:00:00 2.3 3 Noroeste 9 Oeste 0 -- -- 97
2020-01-07 07:00:00 2.6 4 Noroeste 9 Noroeste 0 -- -- 97
2020-01-07 06:00:00 2.8 6 Noroeste 8 Noroeste 0 -- -- 98
2020-01-07 05:00:00 2.9 5 Noroeste 8 Noroeste 0 -- -- 97
2020-01-07 04:00:00 3.2 4 Noroeste 6 Noroeste 0 -- -- 97
2020-01-07 03:00:00 3.9 4 Noroeste 6 Noroeste 0 -- -- 97
2020-01-07 02:00:00 4.4 3 Noroeste 7 Noroeste 0 -- -- 97
2020-01-07 01:00:00 4.8 4 Noroeste 8 Oeste 0 -- -- 97
2020-01-07 00:00:00 5.1 4 Noroeste 8 Oeste 0 -- -- 96
2020-01-06 23:00:00 5.3 4 Noroeste 6 Noroeste 0 -- -- 95
2020-01-06 22:00:00 6.2 3 Noroeste 8 Oeste 0 -- -- 93
2020-01-06 21:00:00 6.6 3 Noroeste 6 Noroeste 0 -- -- 92
2020-01-06 20:00:00 7.8 0 Calma 2 Norte 0 -- -- 88
2020-01-06 19:00:00 9.9 0 Calma 4 Sudoeste 0 -- -- 83
2020-01-06 18:00:00 12.5 3 Sur 11 Sur 0 -- -- 77
2020-01-06 17:00:00 14.1 6 Sur 13 Sudoeste 0 -- -- 69
2020-01-06 16:00:00 16 5 Sur 14 Sur 0 -- -- 63
2020-01-06 15:00:00 16.4 3 Sur 9 Sudeste 0 -- -- 60
2020-01-06 14:00:00 15.4 3 Este 8 Este 0 -- -- 64
2020-01-06 13:00:00 14.6 3 Oeste 9 Oeste 0 -- -- 68
2020-01-06 12:00:00 12.6 3 Oeste 8 Oeste 0 -- -- 77
2020-01-06 11:00:00 8.9 4 Oeste 9 Oeste 0 -- -- 88
2020-01-06 10:00:00 5.5 5 Oeste 10 Noroeste 0 -- -- 97